Terminal Aerodrome Forecast
Issued by NWS

Home | Current Version | Previous Version | Text Only | Print | Product List | Glossary On
Versions: 1 2 3 4 5 6 7 8 9 10 11 12 13 14 15 16 17 18 19 20 21 22 23 24 25 26 27
283
FTUS44 KBMX 030306 AAA
TAFEET
TAF AMD
KEET 030306Z 0303/0324 19006KT P6SM VCSH SCT007 BKN015
      TEMPO 0303/0306 BKN007
     FM030600 VRB03KT 4SM BR BKN007
     FM031600 30008KT P6SM SCT015 BKN050=

USA.gov is the U.S. government's official web portal to all federal, state and local government web resources and services.